Data for 05/07/2005

Time Sea-Level Adjusted Pressure Absolute Pressure Temperature Relative Humidity Dew Point   
(mb) (inHg) (mb) (inHg) (C) (F) (%) (C) (F)
00:05 1008 29.77 837 24.72 11.4 52.5 49 1 33.8
00:10 1008 29.77 837 24.72 11.3 52.3 49 1 33.9
00:15 1008 29.77 837 24.72 11.3 52.3 51 1.5 34.7
00:20 1008 29.77 838 24.75 11.6 52.8 52 2.2 35.9
00:25 1008 29.77 838 24.75 11.5 52.7 48 0.9 33.5
00:30 1008 29.77 838 24.75 11.2 52.1 47 0.3 32.6
00:35 1008 29.77 838 24.75 11.1 51.9 48 0.5 33
00:40 1008 29.77 838 24.75 10.8 51.4 49 0.5 32.9
00:45 1008 29.77 838 24.75 10.5 50.8 53 1.2 34.2
00:50 1008 29.77 838 24.75 10.6 51.1 50 0.6 33.1
00:55 1008 29.77 838 24.75 10.7 51.3 48 0.2 32.4
01:00 1008 29.77 837 24.72 10.5 50.9 50 0.7 33.2
01:05 1008 29.77 837 24.72 10 50 51 0.4 32.7
01:10 1008 29.77 838 24.75 9.7 49.5 54 0.9 33.6
01:15 1008 29.77 838 24.75 9.1 48.4 56 0.7 33.3
01:20 1008 29.77 838 24.75 8.4 47.1 58 0.7 33.2
01:25 1008 29.77 838 24.75 8.2 46.7 59 0.6 33.1
01:30 1008 29.77 838 24.75 8.2 46.7 58 0.4 32.6
01:35 1008 29.77 838 24.75 8.1 46.7 58 0.4 32.8
01:40 1008 29.77 838 24.75 8.1 46.6 59 0.6 33.1
01:45 1008 29.77 838 24.75 7.9 46.1 60 0.5 32.9
01:50 1008 29.77 838 24.75 7.7 45.9 60 0.4 32.7
01:55 1009 29.8 838 24.75 7.9 46.2 58 0.1 32.3
02:00 1009 29.8 838 24.75 8.2 46.7 58 0.3 32.5
02:05 1009 29.8 838 24.75 8.3 47 56 0.1 32.1
02:10 1009 29.8 838 24.75 8.3 47 57 0.3 32.5
02:15 1009 29.8 838 24.75 8 46.4 58 0.2 32.4
02:20 1009 29.8 838 24.75 7.9 46.2 58 0.2 32.4
02:25 1009 29.8 838 24.75 8 46.5 57 0 32.1
02:30 1009 29.8 838 24.75 8 46.5 57 0 32
02:35 1009 29.8 838 24.75 8.1 46.5 58 0.3 32.6
02:40 1009 29.8 838 24.75 7.9 46.1 59 0.4 32.8
02:45 1009 29.8 838 24.75 7.7 45.8 60 0.4 32.8
02:50 1009 29.8 838 24.75 7.4 45.4 61 0.4 32.7
02:55 1009 29.8 838 24.75 7.6 45.6 59 0.1 32.2
03:00 1009 29.8 838 24.75 7.9 46.2 58 0.1 32.2
03:05 1009 29.8 838 24.75 8.3 46.9 57 0.2 32.3
03:10 1009 29.8 838 24.75 8.6 47.5 56 0.4 32.7
03:15 1009 29.8 838 24.75 8.6 47.4 57 0.7 33.2
03:20 1009 29.8 838 24.75 8.6 47.4 58 0.9 33.6
03:25 1009 29.8 838 24.75 8.4 47.2 59 0.8 33.5
03:30 1009 29.8 838 24.75 8 46.4 60 0.7 33.3
03:35 1009 29.8 838 24.75 7.7 45.8 62 0.9 33.6
03:40 1009 29.8 838 24.75 7.7 45.8 63 1 33.8
03:45 1009 29.8 838 24.75 8 46.5 61 1.1 34
03:50 1009 29.8 838 24.75 8.5 47.2 61 1.5 34.6
03:55 1009 29.8 838 24.75 8.9 48 61 1.9 35.5
04:00 1009 29.8 838 24.75 9 48.2 61 2 35.6
04:05 1009 29.8 838 24.75 9 48.1 62 2.1 35.8
04:10 1009 29.8 838 24.75 8.8 47.9 62 2 35.6
04:15 1009 29.8 838 24.75 8.5 47.3 62 1.6 35
04:20 1009 29.8 838 24.75 8.2 46.7 64 1.9 35.3
04:25 1009 29.8 838 24.75 8.5 47.3 64 2.2 35.9
04:30 1009 29.8 838 24.75 8.6 47.5 66 2.6 36.7
04:35 1009 29.8 838 24.75 8.5 47.3 68 2.9 37.2
04:40 1009 29.8 838 24.75 8.5 47.2 68 3 37.4
04:45 1009 29.8 838 24.75 8.7 47.6 68 3.1 37.5
04:50 1009 29.8 839 24.78 8.8 47.9 67 3.1 37.7
04:55 1009 29.8 839 24.78 8.8 47.8 68 3.2 37.7
05:00 1009 29.8 838 24.75 8.4 47 69 3.1 37.5
05:05 1009 29.8 839 24.78 8.2 46.8 69 2.9 37.2
05:10 1009 29.8 839 24.78 8.4 47.1 69 3 37.4
05:15 1009 29.8 839 24.78 8.6 47.4 67 2.8 37
05:20 1009 29.8 839 24.78 8.6 47.5 67 2.9 37.2
05:25 1009 29.8 839 24.78 8.7 47.6 67 2.8 37.1
05:30 1009 29.8 839 24.78 8.8 47.9 66 2.9 37.3
05:35 1009 29.8 839 24.78 9 48.1 65 2.9 37.2
05:40 1009 29.8 839 24.78 9.1 48.4 66 3.1 37.6
05:45 1009 29.8 839 24.78 9 48.1 68 3.4 38.1
05:50 1009 29.8 839 24.78 8.9 48 68 3.4 38
05:55 1009 29.8 839 24.78 9 48.2 68 3.4 38.2
06:00 1009 29.8 839 24.78 9.1 48.3 68 3.5 38.3
06:05 1009 29.8 839 24.78 9 48.2 68 3.4 38.1
06:10 1009 29.8 839 24.78 8.9 48.1 69 3.6 38.5
06:15 1009 29.8 839 24.78 8.6 47.6 70 3.6 38.4
06:20 1009 29.8 839 24.78 8.4 47.1 71 3.5 38.2
06:25 1009 29.8 839 24.78 7.8 46.1 73 3.4 38.1
06:30 1010 29.83 839 24.78 7.5 45.5 73 3 37.4
06:35 1009 29.8 839 24.78 7.8 46 72 3.1 37.6
06:40 1010 29.83 839 24.78 8.3 46.9 70 3.2 37.8
06:45 1010 29.83 839 24.78 8.4 47.2 71 3.5 38.4
06:50 1010 29.83 839 24.78 8.5 47.4 71 3.7 38.6
06:55 1010 29.83 839 24.78 8.8 47.8 72 4 39.2
07:00 1010 29.83 839 24.78 8.9 48.1 71 4 39.1
07:05 1010 29.83 839 24.78 9.3 48.7 70 4.2 39.5
07:10 1010 29.83 839 24.78 9.5 49.1 70 4.3 39.8
07:15 1010 29.83 839 24.78 9.7 49.4 70 4.4 40
07:20 1010 29.83 839 24.78 9.8 49.7 69 4.5 40.1
07:25 1010 29.83 839 24.78 9.9 49.9 69 4.6 40.3
07:30 1010 29.83 839 24.78 10 50 70 4.8 40.6
07:35 1010 29.83 839 24.78 9.9 49.8 71 4.8 40.7
07:40 1010 29.83 839 24.78 9.9 49.9 71 4.9 40.9
07:45 1010 29.83 839 24.78 10 49.9 70 4.7 40.5
07:50 1010 29.83 839 24.78 10.1 50.2 69 4.7 40.5
07:55 1010 29.83 839 24.78 10.2 50.3 68 4.6 40.4
08:00 1010 29.83 839 24.78 10.2 50.4 68 4.7 40.4
08:05 1010 29.83 839 24.78 10.3 50.5 68 4.7 40.5
08:10 1010 29.83 839 24.78 10.3 50.6 69 4.9 40.8
08:15 1010 29.83 839 24.78 10.5 50.9 68 5 41
08:20 1010 29.83 839 24.78 10.7 51.2 68 5.1 41.1
08:25 1010 29.83 839 24.78 10.6 51 69 5.2 41.3
08:30 1010 29.83 839 24.78 10.5 50.9 68 4.9 40.8
08:35 1010 29.83 839 24.78 10.7 51.2 68 5.1 41.1
08:40 1010 29.83 839 24.78 10.3 50.6 69 5 41
08:45 1010 29.83 839 24.78 10.4 50.7 69 5 41.1
08:50 1010 29.83 839 24.78 10.5 50.8 69 5 41
08:55 1010 29.83 839 24.78 10.6 51 69 5.2 41.3
09:00 1010 29.83 839 24.78 10.6 51 68 5 41.1
09:05 1010 29.83 839 24.78 10.8 51.5 68 5.2 41.3
09:10 1010 29.83 839 24.78 10.9 51.6 68 5.2 41.3
09:15 1010 29.83 839 24.78 11 51.7 68 5.3 41.5
09:20 1010 29.83 839 24.78 11.2 52.1 67 5.3 41.5
09:25 1010 29.83 839 24.78 11.6 52.8 66 5.4 41.8
09:30 1010 29.83 839 24.78 11.9 53.4 65 5.5 42
09:35 1010 29.83 839 24.78 11.8 53.3 65 5.6 42
09:40 1010 29.83 839 24.78 11.7 53.1 65 5.5 41.9
09:45 1010 29.83 839 24.78 11.7 53 65 5.3 41.6
09:50 1010 29.83 839 24.78 11.9 53.3 64 5.3 41.5
09:55 1010 29.83 839 24.78 11.9 53.5 64 5.4 41.7
10:00 1010 29.83 839 24.78 12 53.6 63 5.2 41.3
10:05 1010 29.83 839 24.78 12.2 54 61 5.1 41.1
10:10 1010 29.83 839 24.78 12.1 53.8 61 5 40.9
10:15 1010 29.83 839 24.78 12.3 54.1 61 5.1 41.2
10:20 1010 29.83 839 24.78 12.3 54.1 61 5 41
10:25 1010 29.83 839 24.78 12.5 54.4 60 5 40.9
10:30 1010 29.83 839 24.78 12.9 55.1 57 4.7 40.5
10:35 1010 29.83 839 24.78 12.9 55.1 59 5 41
10:40 1010 29.83 839 24.78 12.7 54.9 59 5 40.9
10:45 1010 29.83 839 24.78 12.8 55 58 4.9 40.9
10:50 1010 29.83 839 24.78 12.7 54.9 59 5 41.1
10:55 1010 29.83 839 24.78 12.8 55 58 4.8 40.6
11:00 1010 29.83 839 24.78 12.9 55.2 58 4.8 40.7
11:05 1010 29.83 839 24.78 13.2 55.8 56 4.6 40.3
11:10 1010 29.83 839 24.78 13.2 55.8 55 4.4 39.9
11:15 1010 29.83 839 24.78 13.4 56 55 4.5 40.1
11:20 1010 29.83 839 24.78 13.4 56.2 55 4.7 40.4
11:25 1010 29.83 839 24.78 13.5 56.3 55 4.7 40.4
11:30 1010 29.83 839 24.78 13.7 56.7 55 5 40.9
11:35 1010 29.83 839 24.78 13.9 56.9 55 5.1 41.2
11:40 1010 29.83 839 24.78 14 57.2 54 5 41.1
11:45 1010 29.83 839 24.78 14 57.2 55 5.1 41.1
11:50 1010 29.83 839 24.78 13.8 56.8 55 5 41
11:55 1010 29.83 839 24.78 14 57.1 55 5.1 41.2
12:00 1010 29.83 839 24.78 14.1 57.3 55 5.1 41.2
12:05 1010 29.83 839 24.78 13.9 57.1 55 5.1 41.2
12:10 1010 29.83 839 24.78 14.1 57.3 54 5 41.1
12:15 1010 29.83 839 24.78 14.1 57.4 53 4.6 40.3
12:20 1010 29.83 839 24.78 14.3 57.8 52 4.8 40.6
12:25 1010 29.83 839 24.78 14.4 57.9 51 4.6 40.2
12:30 1010 29.83 839 24.78 14.1 57.3 53 4.6 40.3
12:35 1010 29.83 839 24.78 13.6 56.5 53 4.4 39.8
12:40 1010 29.83 839 24.78 14 57.1 53 4.6 40.3
12:45 1010 29.83 839 24.78 14 57.2 53 4.5 40.1
12:50 1010 29.83 839 24.78 14 57.1 54 4.8 40.6
12:55 1010 29.83 839 24.78 13.8 56.8 54 4.7 40.5
13:00 1010 29.83 839 24.78 14 57.2 52 4.5 40.1
13:05 1010 29.83 839 24.78 14 57.2 53 4.6 40.2
13:10 1010 29.83 839 24.78 14.1 57.5 52 4.6 40.4
13:15 1010 29.83 839 24.78 14.2 57.6 52 4.6 40.3
13:20 1010 29.83 839 24.78 14.5 58 52 4.8 40.6
13:25 1010 29.83 839 24.78 14.4 57.9 52 4.9 40.8
13:30 1010 29.83 839 24.78 14.7 58.4 51 4.7 40.4
13:35 1010 29.83 839 24.78 15.1 59.1 50 4.9 40.9
13:40 1010 29.83 839 24.78 14.9 58.8 52 5.2 41.3
13:45 1010 29.83 839 24.78 15 59 49 4.6 40.2
13:50 1010 29.83 839 24.78 15.4 59.8 49 4.9 40.9
13:55 1010 29.83 839 24.78 14.8 58.6 52 5.3 41.5
14:00 1010 29.83 839 24.78 14.7 58.5 52 5 40.9
14:05 1010 29.83 839 24.78 15 59.1 49 4.5 40.2
14:10 1010 29.83 839 24.78 14.9 58.9 50 4.8 40.7
14:15 1010 29.83 839 24.78 15 59 50 4.7 40.5
14:20 1010 29.83 839 24.78 15.4 59.8 49 4.8 40.7
14:25 1010 29.83 839 24.78 15.7 60.2 49 5 41
14:30 1010 29.83 839 24.78 15.3 59.5 49 4.7 40.4
14:35 1010 29.83 839 24.78 15.2 59.3 49 4.7 40.5
14:40 1010 29.83 839 24.78 15.1 59.2 49 4.6 40.4
14:45 1010 29.83 839 24.78 15.1 59.2 48 4.4 40
14:50 1010 29.83 839 24.78 15.2 59.4 50 5 41
14:55 1010 29.83 839 24.78 14.7 58.5 50 4.6 40.2
15:00 1010 29.83 839 24.78 14.5 58.1 49 4.1 39.4
15:05 1010 29.83 839 24.78 14.5 58.1 50 4.2 39.5
15:10 1010 29.83 839 24.78 14.7 58.5 48 3.8 38.8
15:15 1010 29.83 839 24.78 14.5 58 49 3.9 39.1
15:20 1010 29.83 839 24.78 14.9 58.8 48 3.9 39
15:25 1010 29.83 839 24.78 15.2 59.3 47 4 39.1
15:30 1010 29.83 839 24.78 15 59 48 4.1 39.4
15:35 1010 29.83 839 24.78 14.9 58.8 47 3.9 39
15:40 1010 29.83 839 24.78 15 59.1 48 4.2 39.6
15:45 1010 29.83 839 24.78 15.2 59.4 47 4 39.2
15:50 1010 29.83 839 24.78 15.5 59.9 45 3.9 39
15:55 1010 29.83 839 24.78 15.5 60 47 4.3 39.7
16:00 1010 29.83 839 24.78 15.5 59.9 46 4 39.2
16:05 1010 29.83 839 24.78 15.2 59.4 47 4.1 39.3
16:10 1009 29.8 839 24.78 14.7 58.5 49 4.3 39.7
16:15 1009 29.8 839 24.78 14.9 58.9 47 3.9 39.1
16:20 1009 29.8 839 24.78 15.1 59.2 47 3.9 39
16:25 1009 29.8 839 24.78 15.2 59.4 48 4.3 39.7
16:30 1009 29.8 839 24.78 14.9 58.8 48 4.2 39.6
16:35 1009 29.8 839 24.78 15 58.9 47 3.9 39
16:40 1009 29.8 839 24.78 15 59 47 3.9 39
16:45 1009 29.8 839 24.78 15.6 60.1 46 4 39.2
16:50 1009 29.8 839 24.78 16.3 61.3 43 3.7 38.7
16:55 1009 29.8 839 24.78 16.4 61.4 44 4.2 39.5
17:00 1009 29.8 839 24.78 15.9 60.6 46 4.3 39.8
17:05 1009 29.8 839 24.78 16.2 61.2 44 4 39.3
17:10 1010 29.83 839 24.78 16.3 61.4 44 4.2 39.5
17:15 1010 29.83 839 24.78 16.4 61.5 44 4.3 39.8
17:20 1010 29.83 839 24.78 16.3 61.3 45 4.4 40
17:25 1010 29.83 839 24.78 15.4 59.6 52 5.7 42.3
17:30 1010 29.83 839 24.78 14 57.2 56 5.4 41.6
17:35 1010 29.83 839 24.78 13.2 55.7 58 5.1 41.2
17:40 1010 29.83 839 24.78 12.7 54.8 70 7.4 45.3
17:45 1010 29.83 839 24.78 11.8 53.3 75 7.6 45.7
17:50 1010 29.83 839 24.78 11.3 52.4 75 7.2 44.9
17:55 1010 29.83 839 24.78 11.4 52.6 70 6.1 43
18:00 1010 29.83 839 24.78 11.4 52.6 68 5.8 42.5
18:05 1010 29.83 839 24.78 11.3 52.3 70 6.1 42.9
18:10 1010 29.83 840 24.81 11.3 52.3 74 6.9 44.4
18:15 1010 29.83 840 24.81 10.9 51.7 75 6.7 44
18:20 1010 29.83 840 24.81 11 51.7 73 6.4 43.5
18:25 1010 29.83 840 24.81 11.2 52.2 69 5.8 42.5
18:30 1010 29.83 840 24.81 11.7 53 68 6.1 42.9
18:35 1011 29.85 840 24.81 11.6 52.9 75 7.3 45.1
18:40 1011 29.85 840 24.81 10.9 51.7 77 7.1 44.8
18:45 1011 29.85 840 24.81 10.6 51 76 6.5 43.8
18:50 1011 29.85 840 24.81 10.6 51.2 75 6.3 43.4
18:55 1011 29.85 840 24.81 10.8 51.4 73 6.2 43.1
19:00 1011 29.85 840 24.81 10.9 51.7 72 6.1 43
19:05 1011 29.85 840 24.81 11 51.9 72 6.2 43.2
19:10 1011 29.85 840 24.81 11.1 52.1 71 6.1 43
19:15 1011 29.85 840 24.81 11.3 52.3 75 6.9 44.5
19:20 1011 29.85 840 24.81 11.4 52.5 73 6.6 44
19:25 1011 29.85 840 24.81 11.2 52.2 78 7.6 45.7
19:30 1011 29.85 840 24.81 10.6 51.1 75 6.3 43.4
19:35 1011 29.85 840 24.81 10.7 51.2 75 6.5 43.7
19:40 1011 29.85 841 24.83 10.6 51.2 77 6.7 44.1
19:45 1011 29.85 841 24.83 10.7 51.2 76 6.5 43.8
19:50 1012 29.88 841 24.83 10.8 51.4 75 6.6 43.8
19:55 1011 29.85 841 24.83 10.9 51.6 72 6.1 43
20:00 1012 29.88 841 24.83 11 51.9 73 6.3 43.4
20:05 1012 29.88 841 24.83 10.9 51.7 73 6.3 43.3
20:10 1012 29.88 841 24.83 10.8 51.4 74 6.3 43.4
20:15 1012 29.88 841 24.83 10.8 51.4 73 6.1 43
20:20 1012 29.88 841 24.83 10.8 51.4 74 6.3 43.4
20:25 1012 29.88 841 24.83 11 51.7 74 6.5 43.7
20:30 1012 29.88 841 24.83 11 51.8 75 6.8 44.2
20:35 1012 29.88 841 24.83 11 51.8 77 7.2 45
20:40 1012 29.88 841 24.83 10.8 51.4 76 6.7 44.1
20:45 1012 29.88 841 24.83 10.6 51.1 76 6.7 44
20:50 1012 29.88 841 24.83 10.5 50.9 76 6.5 43.7
20:55 1012 29.88 841 24.83 10.7 51.2 75 6.4 43.5
21:00 1012 29.88 841 24.83 10.8 51.5 75 6.6 43.8
21:05 1012 29.88 842 24.86 11 51.9 75 6.8 44.3
21:10 1012 29.88 842 24.86 10.7 51.3 77 6.9 44.5
21:15 1013 29.91 842 24.86 10.5 50.9 78 6.9 44.5
21:20 1013 29.91 842 24.86 10.4 50.7 77 6.6 43.9
21:25 1013 29.91 842 24.86 10.4 50.8 79 7 44.6
21:30 1013 29.91 842 24.86 10.2 50.4 80 6.9 44.5
21:35 1013 29.91 842 24.86 10.2 50.3 80 7 44.5
21:40 1013 29.91 842 24.86 10 50 79 6.6 43.9
21:45 1013 29.91 842 24.86 10 50 79 6.5 43.7
21:50 1013 29.91 842 24.86 10.1 50.3 79 6.7 44
21:55 1013 29.91 842 24.86 10.2 50.4 81 7.2 44.9
22:00 1013 29.91 842 24.86 10.2 50.3 81 7 44.6
22:05 1013 29.91 842 24.86 10 49.9 82 7.1 44.8
22:10 1013 29.91 842 24.86 10 49.9 83 7.2 44.9
22:15 1013 29.91 842 24.86 9.7 49.5 83 6.9 44.4
22:20 1013 29.91 842 24.86 9.7 49.4 86 7.4 45.3
22:25 1013 29.91 842 24.86 9.5 49.1 83 6.8 44.2
22:30 1013 29.91 842 24.86 9.3 48.8 84 6.8 44.3
22:35 1013 29.91 842 24.86 9.2 48.6 84 6.7 44.1
22:40 1013 29.91 842 24.86 9.1 48.4 85 6.7 44
22:45 1013 29.91 842 24.86 9.2 48.6 83 6.5 43.8
22:50 1013 29.91 842 24.86 9.2 48.5 86 6.9 44.4
22:55 1013 29.91 842 24.86 8.9 48.1 87 6.9 44.4
23:00 1013 29.91 842 24.86 8.8 47.9 88 6.9 44.5
23:05 1013 29.91 842 24.86 8.7 47.6 89 7 44.5
23:10 1013 29.91 842 24.86 8.6 47.6 89 7 44.6
23:15 1013 29.91 842 24.86 8.6 47.4 90 7.1 44.7
23:20 1013 29.91 842 24.86 8.6 47.5 90 7 44.6
23:25 1013 29.91 842 24.86 8.7 47.7 89 7.1 44.7
23:30 1013 29.91 842 24.86 8.8 47.8 89 7.1 44.7
23:35 1013 29.91 843 24.89 8.9 48 88 7.1 44.8
23:40 1013 29.91 843 24.89 8.8 47.8 89 7.1 44.8
23:45 1013 29.91 843 24.89 8.8 47.8 89 7.1 44.9
23:50 1013 29.91 843 24.89 8.7 47.6 90 7.2 44.9
23:55 1013 29.91 843 24.89 8.5 47.3 91 7.1 44.8
24:00 1013 29.91 843 24.89 8.4 47.2 91 7.1 44.7